Voyager — C6WC2 — position and weather

sailwx.info

Track history (hours):
 
Tides and Currents Weather Stations Pressure Air Temp Water Temp Dewpoint Dewpoint Depression Visibility Wind Speed Wind Dir Waves Ship Positions

Voyager

Last reported at 2016-Sep-29 00:32 UTC. Time now 2016-Sep-29 01:33 UTC.
Position N 40°16' E 024°30'.

Length 151 m; draft 6 m.

Type: Ship. MMSI: 309695000.

Date/timePositionNaut miles runAvg speedWind from/ knotsBaromVisibWave heightAir tempDewpointWater temp
2016-Sep-29 00:32N 40°16' E 024°30'79 9.9
2016-Sep-28 16:33N 40°32' E 022°49'9 8.5
2016-Sep-28 15:33N 40°38' E 022°56'0 0.0
2016-Sep-28 12:32N 40°38' E 022°56'0 0.0
2016-Sep-28 08:26N 40°38' E 022°56'1 0.2
2016-Sep-28 03:33N 40°37' E 022°55'9 8.8
2016-Sep-28 02:33N 40°30' E 022°48'9 8.6
2016-Sep-28 01:33N 40°22' E 022°47'175 7.0
2016-Sep-27 00:33N 37°41' E 024°16'32 8.0
2016-Sep-26 20:33N 37°49' E 023°36'7 7.2
2016-Sep-26 19:32N 37°56' E 023°38'0 0.0
2016-Sep-26 15:29N 37°56' E 023°38'0 0.0
2016-Sep-26 13:32N 37°56' E 023°38'0 0.0
2016-Sep-26 11:32N 37°56' E 023°38'0 0.0
2016-Sep-26 02:33N 37°56' E 023°38'0 0.0
2016-Sep-26 01:33N 37°56' E 023°38'0 0.0
2016-Sep-26 00:33N 37°56' E 023°38'0 0.0
2016-Sep-25 21:33N 37°56' E 023°38'0 0.0
2016-Sep-25 17:30N 37°56' E 023°38'0 0.0
2016-Sep-25 16:33N 37°56' E 023°38'0 0.0
2016-Sep-25 15:33N 37°56' E 023°38'0 0.0
2016-Sep-25 14:33N 37°56' E 023°38'0 0.0
2016-Sep-25 12:33N 37°56' E 023°38'0 0.0
2016-Sep-25 11:30N 37°56' E 023°38'0 0.0
2016-Sep-25 10:33N 37°56' E 023°38'0 0.0
2016-Sep-25 09:33N 37°56' E 023°38'0 0.0
2016-Sep-25 07:33N 37°56' E 023°38'0 0.0
2016-Sep-25 04:33N 37°56' E 023°38'23 5.7
2016-Sep-25 00:33N 37°34' E 023°45'18 9.2
2016-Sep-24 22:33N 37°16' E 023°39'9 9.1
2016-Sep-24 21:34N 37°11' E 023°30'19 9.3
2016-Sep-24 19:32N 37°11' E 023°07'9 9.4
2016-Sep-24 18:33N 37°18' E 022°60'11 9.7
2016-Sep-24 17:25N 37°27' E 022°51'7 1.0
2016-Sep-24 10:15N 37°34' E 022°47'1212.5
2016-Sep-24 09:17N 37°23' E 022°54'  
2016-Sep-21 19:33N 42°03' E 018°39'25 8.4
2016-Sep-21 16:33N 42°28' E 018°45'1 0.1
2016-Sep-21 09:32N 42°27' E 018°46'0 0.0
2016-Sep-21 08:32N 42°27' E 018°46'3 1.1
2016-Sep-21 05:33N 42°29' E 018°42'15 7.4
2016-Sep-21 03:33N 42°22' E 018°23'9 8.6
2016-Sep-21 02:33N 42°23' E 018°12'223 9.2
2016-Sep-20 02:26N 44°19' E 013°50'3010.5
2016-Sep-19 23:33N 44°44' E 013°27'4010.1
2016-Sep-19 19:33N 45°15' E 012°49'1010.2
2016-Sep-19 18:33N 45°20' E 012°37'14 6.6
2016-Sep-19 16:28N 45°26' E 012°19'0 0.0
2016-Sep-19 14:31N 45°26' E 012°19'0 0.0
2016-Sep-19 13:31N 45°26' E 012°19'0 0.0
2016-Sep-19 12:31N 45°26' E 012°19'0 0.0
2016-Sep-19 11:28N 45°26' E 012°19'0 0.0
2016-Sep-19 09:31N 45°26' E 012°19'0 0.0
2016-Sep-19 07:31N 45°26' E 012°19'0 0.0
2016-Sep-19 06:31N 45°26' E 012°19'0 0.0
2016-Sep-19 03:22N 45°26' E 012°19'0 0.0
2016-Sep-19 02:31N 45°26' E 012°19'  
Track history (hours):
 
Tides and Currents Weather Stations Pressure Air Temp Water Temp Dewpoint Dewpoint Depression Visibility Wind Speed Wind Dir Waves Ship Positions

Voyager

Last reported at 2016-Sep-29 00:32 UTC. Time now 2016-Sep-29 01:33 UTC.
Position N 40°16' E 024°30'.

Length 151 m; draft 6 m.

Type: Ship. MMSI: 309695000.

Date/timePositionNaut miles runAvg speedWind from/ knotsBaromVisibWave heightAir tempDewpointWater temp
2016-Sep-29 00:32N 40°16' E 024°30'79 9.9
2016-Sep-28 16:33N 40°32' E 022°49'9 8.5
2016-Sep-28 15:33N 40°38' E 022°56'0 0.0
2016-Sep-28 12:32N 40°38' E 022°56'0 0.0
2016-Sep-28 08:26N 40°38' E 022°56'1 0.2
2016-Sep-28 03:33N 40°37' E 022°55'9 8.8
2016-Sep-28 02:33N 40°30' E 022°48'9 8.6
2016-Sep-28 01:33N 40°22' E 022°47'175 7.0
2016-Sep-27 00:33N 37°41' E 024°16'32 8.0
2016-Sep-26 20:33N 37°49' E 023°36'7 7.2
2016-Sep-26 19:32N 37°56' E 023°38'0 0.0
2016-Sep-26 15:29N 37°56' E 023°38'0 0.0
2016-Sep-26 13:32N 37°56' E 023°38'0 0.0
2016-Sep-26 11:32N 37°56' E 023°38'0 0.0
2016-Sep-26 02:33N 37°56' E 023°38'0 0.0
2016-Sep-26 01:33N 37°56' E 023°38'0 0.0
2016-Sep-26 00:33N 37°56' E 023°38'0 0.0
2016-Sep-25 21:33N 37°56' E 023°38'0 0.0
2016-Sep-25 17:30N 37°56' E 023°38'0 0.0
2016-Sep-25 16:33N 37°56' E 023°38'0 0.0
2016-Sep-25 15:33N 37°56' E 023°38'0 0.0
2016-Sep-25 14:33N 37°56' E 023°38'0 0.0
2016-Sep-25 12:33N 37°56' E 023°38'0 0.0
2016-Sep-25 11:30N 37°56' E 023°38'0 0.0
2016-Sep-25 10:33N 37°56' E 023°38'0 0.0
2016-Sep-25 09:33N 37°56' E 023°38'0 0.0
2016-Sep-25 07:33N 37°56' E 023°38'0 0.0
2016-Sep-25 04:33N 37°56' E 023°38'23 5.7
2016-Sep-25 00:33N 37°34' E 023°45'18 9.2
2016-Sep-24 22:33N 37°16' E 023°39'9 9.1
2016-Sep-24 21:34N 37°11' E 023°30'19 9.3
2016-Sep-24 19:32N 37°11' E 023°07'9 9.4
2016-Sep-24 18:33N 37°18' E 022°60'11 9.7
2016-Sep-24 17:25N 37°27' E 022°51'7 1.0
2016-Sep-24 10:15N 37°34' E 022°47'1212.5
2016-Sep-24 09:17N 37°23' E 022°54'  
2016-Sep-21 19:33N 42°03' E 018°39'25 8.4
2016-Sep-21 16:33N 42°28' E 018°45'1 0.1
2016-Sep-21 09:32N 42°27' E 018°46'0 0.0
2016-Sep-21 08:32N 42°27' E 018°46'3 1.1
2016-Sep-21 05:33N 42°29' E 018°42'15 7.4
2016-Sep-21 03:33N 42°22' E 018°23'9 8.6
2016-Sep-21 02:33N 42°23' E 018°12'223 9.2
2016-Sep-20 02:26N 44°19' E 013°50'3010.5
2016-Sep-19 23:33N 44°44' E 013°27'4010.1
2016-Sep-19 19:33N 45°15' E 012°49'1010.2
2016-Sep-19 18:33N 45°20' E 012°37'14 6.6
2016-Sep-19 16:28N 45°26' E 012°19'0 0.0
2016-Sep-19 14:31N 45°26' E 012°19'0 0.0
2016-Sep-19 13:31N 45°26' E 012°19'0 0.0
2016-Sep-19 12:31N 45°26' E 012°19'0 0.0
2016-Sep-19 11:28N 45°26' E 012°19'0 0.0
2016-Sep-19 09:31N 45°26' E 012°19'0 0.0
2016-Sep-19 07:31N 45°26' E 012°19'0 0.0
2016-Sep-19 06:31N 45°26' E 012°19'0 0.0
2016-Sep-19 03:22N 45°26' E 012°19'0 0.0
2016-Sep-19 02:31N 45°26' E 012°19'  

Dump ship's entire track history